Main page
METAR-TAF:

METAR-TAF

Airports :

Lusaka, Zambia

Kenneth Kaunda International Airport

latitude: 15-19-51S, longitude: 028-27-09E, elevation: 1152 m

Current weather observation

The report was made 1 hour and 33 minutes ago, at 19:00 UTC
Wind 4 kt from the South/Southeast
Temperature 16°C
Humidity 68%
Pressure 1024 hPa
Visibility 10 km or more
no clouds below 1500 m and no cumulonimbus

METAR: FLKK 201900Z 15004KT CAVOK 16/10 Q1024

Time: 22:33 (20:33 UTC)

Forecast

The report was made 28 hours and 33 minutes ago, at 16:00 UTC
Forecast valid from 19 at 18 UTC to 20 at 24 UTC
Wind 10 kt from the East
Visibility 10 km or more
no clouds below 1500 m and no cumulonimbus
Temporary
from 20 at 08 UTC to 20 at 10 UTC
Visibility 10 km or more
Few clouds at a height of 3500 ft

TAF: FLKK 191600Z 1918/2024 09010KT CAVOK TEMPO 2008/2010 9999 FEW035

Weather observations and forecasts of more than 4000 airports (METAR and TAF reports).

The available stations are represented by yellow and red dots on the map.

Hover mouse over dot to see the name of the station.

Then click to see weather observations and forecasts.

To change the map : click on the green buttons with a black cross to zoom in, on the green button with a dash to zoom out, or on the green arrows for adjacent maps.


METAR-TAF: